createdAt,value
2018-02-15T00:00:28.269Z,42.35
2018-02-15T00:01:28.249Z,41.88
2018-02-15T00:02:28.229Z,41.03
2018-02-15T00:03:28.211Z,41.03
2018-02-15T00:04:28.191Z,40.46
2018-02-15T00:05:28.177Z,41.12
2018-02-15T00:06:28.198Z,41.40
2018-02-15T00:07:28.117Z,42.35
2018-02-15T00:08:28.091Z,42.82
2018-02-15T00:09:28.077Z,43.10
2018-02-15T00:10:28.055Z,43.66
2018-02-15T00:11:28.031Z,44.42
2018-02-15T00:12:28.021Z,44.70
2018-02-15T00:13:27.999Z,44.51
2018-02-15T00:14:27.976Z,44.51
2018-02-15T00:15:27.963Z,44.89
2018-02-15T00:16:27.937Z,45.27
2018-02-15T00:17:27.923Z,45.65
2018-02-15T00:18:27.902Z,45.74
2018-02-15T00:19:27.879Z,45.27
2018-02-15T00:20:27.864Z,44.89
2018-02-15T00:21:27.841Z,44.89
2018-02-15T00:22:27.817Z,45.08
2018-02-15T00:23:27.799Z,44.23
2018-02-15T00:24:27.781Z,43.57
2018-02-15T00:25:27.763Z,43.29
2018-02-15T00:26:27.747Z,43.19
2018-02-15T00:27:27.725Z,43.19
2018-02-15T00:28:27.705Z,43.38
2018-02-15T00:29:27.685Z,43.38
2018-02-15T00:30:27.665Z,43.57
2018-02-15T00:31:27.647Z,44.04
2018-02-15T00:32:27.627Z,43.85
2018-02-15T00:33:27.607Z,44.61
2018-02-15T00:34:27.589Z,44.42
2018-02-15T00:35:27.569Z,44.51
2018-02-15T00:36:27.549Z,44.80
2018-02-15T00:37:27.531Z,44.32
2018-02-15T00:38:27.511Z,44.70
2018-02-15T00:39:27.493Z,44.61
2018-02-15T00:40:27.469Z,44.70
2018-02-15T00:41:27.447Z,45.65
2018-02-15T00:42:27.433Z,45.18
2018-02-15T00:43:27.413Z,45.65
2018-02-15T00:44:27.393Z,44.51
2018-02-15T00:45:27.365Z,44.04
2018-02-15T00:46:27.353Z,42.44
2018-02-15T00:47:27.336Z,42.82
2018-02-15T00:48:27.314Z,43.29
2018-02-15T00:49:27.290Z,43.76
2018-02-15T00:50:27.273Z,44.42
2018-02-15T00:51:27.255Z,45.36
2018-02-15T00:52:27.231Z,45.93
2018-02-15T00:53:27.219Z,46.12
2018-02-15T00:54:27.201Z,46.22
2018-02-15T00:55:27.175Z,45.84
2018-02-15T00:56:27.157Z,44.89
2018-02-15T00:57:27.135Z,44.42
2018-02-15T00:58:27.116Z,44.61
2018-02-15T00:59:27.095Z,45.08
2018-02-15T01:00:27.079Z,45.46
2018-02-15T01:01:27.058Z,45.08
2018-02-15T01:02:27.037Z,44.80
2018-02-15T01:03:27.017Z,44.70
2018-02-15T01:04:27.000Z,45.08
2018-02-15T01:05:26.975Z,44.99
2018-02-15T01:06:26.962Z,45.18
2018-02-15T01:07:26.938Z,45.74
2018-02-15T01:08:26.918Z,45.65
2018-02-15T01:09:26.901Z,44.89
2018-02-15T01:10:26.880Z,44.70
2018-02-15T01:11:26.862Z,44.68
2018-02-15T01:12:26.846Z,44.42
2018-02-15T01:13:26.827Z,44.59
2018-02-15T01:14:26.803Z,45.06
2018-02-15T01:15:26.777Z,45.62
2018-02-15T01:16:26.758Z,45.90
2018-02-15T01:17:26.738Z,46.00
2018-02-15T01:18:26.726Z,47.13
2018-02-15T01:19:26.700Z,47.25
2018-02-15T01:20:26.678Z,47.04
2018-02-15T01:21:26.660Z,46.94
2018-02-15T01:22:26.637Z,47.23
2018-02-15T01:23:26.620Z,45.90
2018-02-15T01:24:26.600Z,44.61
2018-02-15T01:25:26.577Z,43.76
2018-02-15T01:26:26.562Z,43.95
2018-02-15T01:27:26.541Z,43.66
2018-02-15T01:28:26.518Z,44.23
2018-02-15T01:29:26.500Z,43.95
2018-02-15T01:30:26.487Z,43.66
2018-02-15T01:31:26.461Z,43.29
2018-02-15T01:32:26.439Z,42.72
2018-02-15T01:33:26.423Z,42.72
2018-02-15T01:34:26.403Z,43.10
2018-02-15T01:35:26.379Z,43.57
2018-02-15T01:36:26.368Z,44.04
2018-02-15T01:37:26.339Z,44.40
2018-02-15T01:38:26.315Z,45.55
2018-02-15T01:39:26.302Z,46.31
2018-02-15T01:40:26.280Z,47.04
2018-02-15T01:41:26.263Z,46.28
2018-02-15T01:42:26.237Z,45.84
2018-02-15T01:43:26.218Z,45.84
2018-02-15T01:44:26.198Z,45.74
2018-02-15T01:45:26.180Z,45.55
2018-02-15T01:46:26.157Z,45.55
2018-02-15T01:47:26.137Z,45.36
2018-02-15T01:48:26.116Z,45.84
2018-02-15T01:49:26.100Z,46.22
2018-02-15T01:50:26.080Z,44.70
2018-02-15T01:51:26.062Z,43.85
2018-02-15T01:52:26.040Z,43.66
2018-02-15T01:53:26.018Z,43.57
2018-02-15T01:54:25.999Z,43.76
2018-02-15T01:55:25.979Z,43.76
2018-02-15T01:56:25.960Z,44.61
2018-02-15T01:57:25.931Z,44.80
2018-02-15T01:58:25.917Z,45.08
2018-02-15T01:59:25.902Z,45.74
2018-02-15T02:00:25.876Z,44.99
2018-02-15T02:01:25.859Z,45.08
2018-02-15T02:02:25.836Z,44.99
2018-02-15T02:03:25.817Z,44.70
2018-02-15T02:04:25.798Z,44.80
2018-02-15T02:05:25.776Z,45.08
2018-02-15T02:06:25.759Z,46.12
2018-02-15T02:07:25.738Z,45.84
2018-02-15T02:08:25.720Z,45.93
2018-02-15T02:09:25.700Z,46.12
2018-02-15T02:10:25.680Z,45.74
2018-02-15T02:11:25.659Z,45.08
2018-02-15T02:12:25.639Z,44.42
2018-02-15T02:13:25.615Z,44.80
2018-02-15T02:14:25.603Z,44.99
2018-02-15T02:15:25.579Z,45.84
2018-02-15T02:16:25.553Z,45.74
2018-02-15T02:17:25.540Z,46.12
2018-02-15T02:18:25.520Z,46.59
2018-02-15T02:19:25.494Z,46.69
2018-02-15T02:20:25.482Z,46.88
2018-02-15T02:21:25.462Z,46.78
2018-02-15T02:22:25.434Z,46.69
2018-02-15T02:23:25.416Z,46.40
2018-02-15T02:24:25.400Z,46.69
2018-02-15T02:25:25.377Z,46.78
2018-02-15T02:26:25.362Z,46.59
2018-02-15T02:27:25.340Z,46.59
2018-02-15T02:28:25.322Z,46.69
2018-02-15T02:29:25.306Z,46.59
2018-02-15T02:30:25.326Z,46.40
2018-02-15T02:31:25.263Z,46.59
2018-02-15T02:32:25.238Z,46.59
2018-02-15T02:33:25.224Z,46.88
2018-02-15T02:34:25.206Z,46.97
2018-02-15T02:35:25.180Z,47.25
2018-02-15T02:36:25.164Z,46.78
2018-02-15T02:37:25.142Z,46.40
2018-02-15T02:38:25.122Z,45.27
2018-02-15T02:39:25.103Z,44.32
2018-02-15T02:40:25.078Z,43.93
2018-02-15T02:41:25.064Z,43.27
2018-02-15T02:42:25.043Z,43.36
2018-02-15T02:43:25.021Z,43.27
2018-02-15T02:44:25.008Z,43.55
2018-02-15T02:45:24.984Z,43.93
2018-02-15T02:46:24.960Z,44.59
2018-02-15T02:47:24.936Z,44.78
2018-02-15T02:48:24.922Z,45.15
2018-02-15T02:49:24.900Z,44.96
2018-02-15T02:50:24.882Z,44.40
2018-02-15T02:51:24.862Z,44.40
2018-02-15T02:52:24.844Z,43.74
2018-02-15T02:53:24.820Z,43.74
2018-02-15T02:54:24.800Z,43.84
2018-02-15T02:55:24.778Z,44.59
2018-02-15T02:56:24.766Z,45.06
2018-02-15T02:57:24.738Z,45.81
2018-02-15T02:58:24.717Z,46.12
2018-02-15T02:59:24.696Z,46.40
2018-02-15T03:00:24.680Z,46.88
2018-02-15T03:01:24.654Z,47.34
2018-02-15T03:02:24.644Z,47.06
2018-02-15T03:03:24.616Z,46.40
2018-02-15T03:04:24.598Z,45.27
2018-02-15T03:05:24.578Z,44.32
2018-02-15T03:06:24.558Z,44.32
2018-02-15T03:07:24.532Z,44.42
2018-02-15T03:08:24.518Z,43.95
2018-02-15T03:09:24.494Z,43.95
2018-02-15T03:10:24.476Z,43.66
2018-02-15T03:11:24.459Z,43.95
2018-02-15T03:12:24.440Z,43.76
2018-02-15T03:13:24.416Z,43.95
2018-02-15T03:14:24.404Z,44.32
2018-02-15T03:15:24.378Z,44.99
2018-02-15T03:16:24.360Z,46.03
2018-02-15T03:17:24.334Z,47.06
2018-02-15T03:18:24.316Z,47.25
2018-02-15T03:19:24.298Z,47.91
2018-02-15T03:20:24.280Z,47.91
2018-02-15T03:21:24.262Z,48.66
2018-02-15T03:22:24.234Z,49.04
2018-02-15T03:23:24.218Z,49.14
2018-02-15T03:24:24.200Z,49.32
2018-02-15T03:25:24.176Z,48.85
2018-02-15T03:26:24.150Z,47.91
2018-02-15T03:27:24.140Z,47.16
2018-02-15T03:28:24.116Z,47.06
2018-02-15T03:29:24.096Z,46.97
2018-02-15T03:30:24.079Z,47.34
2018-02-15T03:31:24.055Z,47.53
2018-02-15T03:32:24.039Z,47.53
2018-02-15T03:33:24.017Z,47.34
2018-02-15T03:34:23.994Z,47.44
2018-02-15T03:35:23.978Z,47.34
2018-02-15T03:36:23.960Z,47.34
2018-02-15T03:37:23.943Z,47.81
2018-02-15T03:38:23.920Z,48.10
2018-02-15T03:39:23.896Z,48.19
2018-02-15T03:40:23.876Z,48.10
2018-02-15T03:41:23.856Z,48.76
2018-02-15T03:42:23.836Z,49.04
2018-02-15T03:43:23.814Z,49.61
2018-02-15T03:44:23.800Z,50.08
2018-02-15T03:45:23.772Z,50.27
2018-02-15T03:46:23.755Z,50.46
2018-02-15T03:47:23.742Z,50.55
2018-02-15T03:48:23.720Z,50.18
2018-02-15T03:49:23.694Z,49.70
2018-02-15T03:50:23.681Z,49.89
2018-02-15T03:51:23.654Z,49.14
2018-02-15T03:52:23.638Z,48.29
2018-02-15T03:53:23.615Z,47.44
2018-02-15T03:54:23.596Z,47.25
2018-02-15T03:55:23.574Z,46.69
2018-02-15T03:56:23.556Z,46.50
2018-02-15T03:57:23.538Z,46.12
2018-02-15T03:58:23.516Z,46.50
2018-02-15T03:59:23.504Z,46.59
2018-02-15T04:00:23.480Z,47.06
2018-02-15T04:01:23.455Z,48.10
2018-02-15T04:02:23.434Z,48.85
2018-02-15T04:03:23.416Z,49.14
2018-02-15T04:04:23.396Z,49.61
2018-02-15T04:05:23.378Z,49.80
2018-02-15T04:06:23.358Z,49.99
2018-02-15T04:07:23.341Z,49.51
2018-02-15T04:08:23.320Z,49.51
2018-02-15T04:09:23.296Z,49.51
2018-02-15T04:10:23.276Z,49.04
2018-02-15T04:11:23.256Z,49.04
2018-02-15T04:12:23.281Z,49.32
2018-02-15T04:13:23.216Z,49.23
2018-02-15T04:14:23.200Z,48.95
2018-02-15T04:15:23.178Z,48.10
2018-02-15T04:16:23.156Z,48.00
2018-02-15T04:17:23.136Z,47.34
2018-02-15T04:18:23.115Z,47.16
2018-02-15T04:19:23.104Z,46.88
2018-02-15T04:20:23.082Z,47.16
2018-02-15T04:21:23.070Z,46.97
2018-02-15T04:22:23.038Z,46.97
2018-02-15T04:23:23.019Z,47.06
2018-02-15T04:24:23.000Z,47.53
2018-02-15T04:25:22.980Z,48.10
2018-02-15T04:26:22.962Z,48.76
2018-02-15T04:27:22.940Z,49.51
2018-02-15T04:28:22.920Z,49.14
2018-02-15T04:29:22.901Z,48.85
2018-02-15T04:30:22.888Z,48.29
2018-02-15T04:31:22.865Z,47.72
2018-02-15T04:32:22.845Z,47.63
2018-02-15T04:33:22.824Z,47.91
2018-02-15T04:34:22.802Z,47.91
2018-02-15T04:35:22.780Z,48.10
2018-02-15T04:36:22.758Z,48.19
2018-02-15T04:37:22.740Z,48.85
2018-02-15T04:38:22.720Z,48.95
2018-02-15T04:39:22.704Z,48.95
2018-02-15T04:40:22.684Z,49.14
2018-02-15T04:41:22.663Z,49.14
2018-02-15T04:42:22.647Z,49.32
2018-02-15T04:43:22.628Z,49.32
2018-02-15T04:44:22.602Z,48.76
2018-02-15T04:45:22.588Z,48.85
2018-02-15T04:46:22.560Z,48.76
2018-02-15T04:47:22.542Z,48.95
2018-02-15T04:48:22.522Z,49.04
2018-02-15T04:49:22.509Z,49.80
2018-02-15T04:50:22.486Z,50.55
2018-02-15T04:51:22.466Z,51.24
2018-02-15T04:52:22.446Z,51.81
2018-02-15T04:53:22.430Z,51.81
2018-02-15T04:54:22.408Z,51.59
2018-02-15T04:55:22.390Z,51.43
2018-02-15T04:56:22.371Z,51.31
2018-02-15T04:57:22.352Z,50.39
2018-02-15T04:58:22.895Z,49.91
2018-02-15T04:59:22.308Z,49.16
2018-02-15T05:00:22.292Z,48.69
2018-02-15T05:01:22.268Z,48.60
2018-02-15T05:02:22.256Z,48.60
2018-02-15T05:03:22.234Z,48.69
2018-02-15T05:04:22.221Z,48.79
2018-02-15T05:05:22.190Z,48.41
2018-02-15T05:06:22.174Z,48.69
2018-02-15T05:07:22.159Z,47.75
2018-02-15T05:08:22.136Z,47.94
2018-02-15T05:09:22.119Z,49.07
2018-02-15T05:10:22.101Z,48.97
2018-02-15T05:11:22.081Z,50.10
2018-02-15T05:12:22.061Z,50.58
2018-02-15T05:13:22.041Z,50.95
2018-02-15T05:14:22.018Z,50.67
2018-02-15T05:15:22.007Z,51.24
2018-02-15T05:16:21.985Z,51.14
2018-02-15T05:17:21.961Z,51.14
2018-02-15T05:18:21.939Z,50.58
2018-02-15T05:19:21.928Z,50.76
2018-02-15T05:20:21.907Z,50.67
2018-02-15T05:21:21.885Z,51.24
2018-02-15T05:22:21.868Z,51.33
2018-02-15T05:23:21.845Z,51.52
2018-02-15T05:24:21.826Z,51.99
2018-02-15T05:25:21.807Z,51.99
2018-02-15T05:26:21.799Z,51.90
2018-02-15T05:27:21.766Z,52.18
2018-02-15T05:28:21.755Z,51.62
2018-02-15T05:29:21.728Z,51.24
2018-02-15T05:30:21.708Z,51.05
2018-02-15T05:31:21.693Z,51.05
2018-02-15T05:32:21.677Z,51.05
2018-02-15T05:33:21.658Z,50.76
2018-02-15T05:34:21.636Z,51.24
2018-02-15T05:35:21.616Z,51.33
2018-02-15T05:36:21.598Z,50.76
2018-02-15T05:37:21.575Z,50.86
2018-02-15T05:38:21.563Z,50.29
2018-02-15T05:39:21.541Z,49.73
2018-02-15T05:40:21.516Z,50.39
2018-02-15T05:41:21.507Z,50.20
2018-02-15T05:42:21.485Z,50.67
2018-02-15T05:43:21.463Z,50.58
2018-02-15T05:44:21.445Z,50.48
2018-02-15T05:45:21.425Z,50.58
2018-02-15T05:46:21.407Z,50.48
2018-02-15T05:47:21.389Z,50.67
2018-02-15T05:48:21.366Z,50.95
2018-02-15T05:49:21.351Z,51.43
2018-02-15T05:50:21.326Z,51.43
2018-02-15T05:51:21.317Z,51.62
2018-02-15T05:52:21.293Z,51.24
2018-02-15T05:53:21.273Z,51.33
2018-02-15T05:54:21.257Z,50.86
2018-02-15T05:55:21.237Z,51.14
2018-02-15T05:56:21.214Z,51.33
2018-02-15T05:57:21.205Z,51.05
2018-02-15T05:58:21.178Z,51.05
2018-02-15T05:59:21.155Z,51.14
2018-02-15T06:00:21.141Z,51.14
2018-02-15T06:01:21.121Z,51.33
2018-02-15T06:02:21.117Z,51.62
2018-02-15T06:03:21.085Z,51.43
2018-02-15T06:04:21.066Z,51.99
2018-02-15T06:05:21.045Z,52.84
2018-02-15T06:06:21.025Z,53.31
2018-02-15T06:07:21.005Z,52.84
2018-02-15T06:08:20.989Z,52.18
2018-02-15T06:09:20.965Z,51.62
2018-02-15T06:10:20.953Z,51.05
2018-02-15T06:11:20.929Z,50.95
2018-02-15T06:12:20.911Z,50.95
2018-02-15T06:13:20.890Z,51.24
2018-02-15T06:14:20.873Z,51.71
2018-02-15T06:15:20.854Z,51.90
2018-02-15T06:16:20.843Z,52.09
2018-02-15T06:17:20.822Z,52.28
2018-02-15T06:18:20.799Z,51.81
2018-02-15T06:19:20.787Z,51.99
2018-02-15T06:20:20.763Z,51.90
2018-02-15T06:21:20.743Z,51.99
2018-02-15T06:22:20.725Z,51.90
2018-02-15T06:23:20.711Z,51.05
2018-02-15T06:24:20.689Z,51.05
2018-02-15T06:25:20.661Z,51.05
2018-02-15T06:26:20.647Z,50.76
2018-02-15T06:27:20.633Z,50.48
2018-02-15T06:28:20.611Z,49.73
2018-02-15T06:29:20.591Z,49.63
2018-02-15T06:30:20.571Z,49.82
2018-02-15T06:31:20.557Z,49.82
2018-02-15T06:32:20.537Z,49.91
2018-02-15T06:33:20.515Z,49.63
2018-02-15T06:34:20.499Z,50.48
2018-02-15T06:35:20.481Z,51.14
2018-02-15T06:36:20.518Z,51.14
2018-02-15T06:37:20.443Z,51.62
2018-02-15T06:38:20.425Z,51.90
2018-02-15T06:39:20.409Z,52.84
2018-02-15T06:40:20.389Z,53.22
2018-02-15T06:41:20.365Z,52.66
2018-02-15T06:42:20.351Z,52.68
2018-02-15T06:43:20.327Z,53.03
2018-02-15T06:44:20.309Z,52.21
2018-02-15T06:45:20.293Z,51.64
2018-02-15T06:46:20.279Z,50.89
2018-02-15T06:47:20.259Z,51.17
2018-02-15T06:48:20.237Z,50.70
2018-02-15T06:49:20.217Z,51.17
2018-02-15T06:50:20.199Z,51.17
2018-02-15T06:51:20.179Z,50.79
2018-02-15T06:52:20.159Z,50.79
2018-02-15T06:53:20.141Z,51.07
2018-02-15T06:54:20.125Z,50.89
2018-02-15T06:55:20.102Z,50.89
2018-02-15T06:56:20.081Z,52.02
2018-02-15T06:57:20.078Z,52.02
2018-02-15T06:58:20.047Z,52.96
2018-02-15T06:59:20.029Z,53.72
2018-02-15T07:00:20.013Z,54.00
2018-02-15T07:01:19.995Z,54.85
2018-02-15T07:02:19.970Z,53.44
2018-02-15T07:03:19.955Z,52.87
2018-02-15T07:04:19.935Z,52.21
2018-02-15T07:05:19.923Z,51.92
2018-02-15T07:06:19.897Z,52.21
2018-02-15T07:07:19.881Z,52.30
2018-02-15T07:08:19.861Z,53.25
2018-02-15T07:09:19.845Z,53.72
2018-02-15T07:10:19.821Z,54.57
2018-02-15T07:11:19.807Z,54.47
2018-02-15T07:12:19.789Z,53.81
2018-02-15T07:13:19.765Z,53.72
2018-02-15T07:14:19.751Z,53.15
2018-02-15T07:15:19.731Z,52.11
2018-02-15T07:16:19.709Z,51.45
2018-02-15T07:17:19.693Z,51.07
2018-02-15T07:18:19.683Z,51.64
2018-02-15T07:19:19.659Z,52.11
2018-02-15T07:20:19.639Z,52.02
2018-02-15T07:21:19.625Z,53.34
2018-02-15T07:22:19.645Z,53.72
2018-02-15T07:23:19.585Z,54.66
2018-02-15T07:24:19.563Z,54.57
2018-02-15T07:25:19.549Z,53.81
2018-02-15T07:26:19.532Z,54.00
2018-02-15T07:27:19.509Z,54.00
2018-02-15T07:28:19.496Z,55.42
2018-02-15T07:29:19.475Z,55.23
2018-02-15T07:30:19.452Z,55.32
2018-02-15T07:31:19.441Z,54.85
2018-02-15T07:32:19.417Z,55.80
2018-02-15T07:33:19.401Z,55.80
2018-02-15T07:34:19.379Z,56.36
2018-02-15T07:35:19.359Z,55.98
2018-02-15T07:36:19.343Z,54.94
2018-02-15T07:37:19.328Z,54.75
2018-02-15T07:38:19.311Z,54.79
2018-02-15T07:39:19.291Z,54.97
2018-02-15T07:40:19.273Z,54.60
2018-02-15T07:41:19.255Z,53.37
2018-02-15T07:42:19.236Z,52.23
2018-02-15T07:43:19.223Z,51.95
2018-02-15T07:44:19.205Z,52.23
2018-02-15T07:45:19.181Z,53.37
2018-02-15T07:46:19.169Z,53.46
2018-02-15T07:47:19.145Z,52.80
2018-02-15T07:48:19.127Z,52.99
2018-02-15T07:49:19.113Z,53.08
2018-02-15T07:50:19.092Z,53.27
2018-02-15T07:51:19.078Z,53.27
2018-02-15T07:52:19.057Z,53.65
2018-02-15T07:53:19.039Z,53.65
2018-02-15T07:54:19.023Z,53.84
2018-02-15T07:55:19.005Z,54.32
2018-02-15T07:56:19.021Z,53.84
2018-02-15T07:57:18.973Z,53.37
2018-02-15T07:58:18.955Z,53.18
2018-02-15T07:59:18.931Z,53.37
2018-02-15T08:00:18.915Z,53.27
2018-02-15T08:01:18.902Z,52.23
2018-02-15T08:02:18.877Z,52.04
2018-02-15T08:03:18.861Z,50.63
2018-02-15T08:04:18.842Z,50.53
2018-02-15T08:05:18.827Z,50.82
2018-02-15T08:06:18.814Z,51.29
2018-02-15T08:07:18.796Z,51.86
2018-02-15T08:08:18.773Z,51.95
2018-02-15T08:09:18.759Z,50.91
2018-02-15T08:10:18.746Z,51.48
2018-02-15T08:11:18.737Z,51.29
2018-02-15T08:12:18.704Z,51.57
2018-02-15T08:13:18.687Z,50.35
2018-02-15T08:14:18.668Z,49.02
2018-02-15T08:15:18.646Z,48.46
2018-02-15T08:16:18.640Z,47.89
2018-02-15T08:17:18.615Z,47.61
2018-02-15T08:18:18.604Z,47.13
2018-02-15T08:19:18.616Z,46.19
2018-02-15T08:20:18.565Z,45.90
2018-02-15T08:21:18.545Z,46.09
2018-02-15T08:22:18.535Z,46.37
2018-02-15T08:23:18.512Z,46.66
2018-02-15T08:24:18.496Z,47.13
2018-02-15T08:25:18.482Z,47.61
2018-02-15T08:26:18.459Z,47.99
2018-02-15T08:27:18.439Z,48.83
2018-02-15T08:28:18.426Z,48.93
2018-02-15T08:29:18.410Z,48.93
2018-02-15T08:30:18.396Z,49.33
2018-02-15T08:31:18.374Z,50.37
2018-02-15T08:32:18.358Z,51.41
2018-02-15T08:33:18.341Z,51.03
2018-02-15T08:34:18.322Z,49.71
2018-02-15T08:35:18.308Z,48.95
2018-02-15T08:36:18.284Z,48.76
2018-02-15T08:37:18.269Z,48.10
2018-02-15T08:38:18.251Z,47.82
2018-02-15T08:39:18.234Z,48.67
2018-02-15T08:40:18.216Z,48.20
2018-02-15T08:41:18.202Z,48.86
2018-02-15T08:42:18.184Z,47.34
2018-02-15T08:43:18.168Z,45.45
2018-02-15T08:44:18.154Z,44.70
2018-02-15T08:45:18.132Z,44.13
2018-02-15T08:46:18.111Z,43.95
2018-02-15T08:47:18.090Z,43.66
2018-02-15T08:48:18.075Z,43.76
2018-02-15T08:49:18.064Z,44.51
2018-02-15T08:50:18.044Z,45.74
2018-02-15T08:51:18.026Z,46.59
2018-02-15T08:52:18.006Z,47.72
2018-02-15T08:53:17.991Z,47.72
2018-02-15T08:54:17.981Z,47.82
2018-02-15T08:55:17.961Z,48.20
2018-02-15T08:56:17.938Z,48.67
2018-02-15T08:57:17.922Z,49.62
2018-02-15T08:58:17.906Z,50.37
2018-02-15T08:59:17.902Z,50.84
2018-02-15T09:00:17.876Z,51.13
2018-02-15T09:01:17.856Z,49.90
2018-02-15T09:02:17.839Z,48.97
2018-02-15T09:03:17.823Z,48.97
2018-02-15T09:04:17.806Z,49.05
2018-02-15T09:05:17.788Z,49.54
2018-02-15T09:06:17.774Z,49.64
2018-02-15T09:07:17.757Z,50.30
2018-02-15T09:08:17.741Z,51.34
2018-02-15T09:09:17.725Z,51.79
2018-02-15T09:10:17.713Z,51.98
2018-02-15T09:11:17.704Z,52.26
2018-02-15T09:12:17.683Z,53.02
2018-02-15T09:13:17.665Z,53.30
2018-02-15T09:14:17.644Z,53.30
2018-02-15T09:15:17.626Z,52.29
2018-02-15T09:16:17.612Z,51.91
2018-02-15T09:17:17.599Z,51.72
2018-02-15T09:18:17.576Z,51.06
2018-02-15T09:19:17.558Z,50.78
2018-02-15T09:20:17.538Z,50.21
2018-02-15T09:21:17.526Z,50.21
2018-02-15T09:22:17.512Z,50.78
2018-02-15T09:23:17.506Z,50.49
2018-02-15T09:24:17.479Z,50.49
2018-02-15T09:25:17.462Z,50.96
2018-02-15T09:26:17.442Z,50.30
2018-02-15T09:27:17.428Z,49.64
2018-02-15T09:28:17.872Z,49.16
2018-02-15T09:29:17.391Z,49.26
2018-02-15T09:30:17.378Z,49.45
2018-02-15T09:31:17.366Z,48.50
2018-02-15T09:32:17.346Z,47.94
2018-02-15T09:33:17.328Z,47.56
2018-02-15T09:34:17.323Z,47.47
2018-02-15T09:35:17.296Z,47.75
2018-02-15T09:36:17.282Z,47.37
2018-02-15T09:37:17.262Z,62.21
2018-02-15T09:38:17.250Z,67.41
2018-02-15T09:39:17.229Z,57.42
2018-02-15T09:40:17.210Z,50.99
2018-02-15T09:41:17.200Z,47.85
2018-02-15T09:42:17.181Z,45.12
2018-02-15T09:43:17.166Z,43.96
2018-02-15T09:44:17.150Z,43.87
2018-02-15T09:45:17.134Z,43.40
2018-02-15T09:46:17.118Z,42.74
2018-02-15T09:47:17.098Z,42.64
2018-02-15T09:48:17.082Z,42.74
2018-02-15T09:49:17.070Z,43.21
2018-02-15T09:50:17.050Z,43.40
2018-02-15T09:51:17.034Z,43.87
2018-02-15T09:52:17.016Z,44.06
2018-02-15T09:53:17.002Z,44.63
2018-02-15T09:54:16.985Z,44.72
2018-02-15T09:55:16.976Z,44.53
2018-02-15T09:56:16.958Z,44.34
2018-02-15T09:57:16.934Z,44.91
2018-02-15T09:58:16.914Z,45.57
2018-02-15T09:59:16.904Z,47.18
2018-02-15T10:00:16.893Z,47.56
2018-02-15T10:01:16.877Z,48.22
2018-02-15T10:02:16.860Z,49.26
2018-02-15T10:03:16.842Z,48.60
2018-02-15T10:04:16.822Z,48.79
2018-02-15T10:05:16.808Z,49.07
2018-02-15T10:06:16.792Z,49.64
2018-02-15T10:07:16.776Z,50.40
2018-02-15T10:08:16.767Z,50.40
2018-02-15T10:09:16.740Z,51.25
2018-02-15T10:10:16.732Z,52.10
2018-02-15T10:11:16.708Z,52.29
2018-02-15T10:12:16.697Z,53.14
2018-02-15T10:13:16.677Z,53.05
2018-02-15T10:14:16.661Z,53.99
2018-02-15T10:15:16.645Z,54.93
2018-02-15T10:16:16.627Z,54.46
2018-02-15T10:17:16.605Z,55.03
2018-02-15T10:18:16.672Z,55.41
2018-02-15T10:19:16.595Z,56.13
2018-02-15T10:20:16.565Z,56.63
2018-02-15T10:21:16.548Z,57.11
2018-02-15T10:22:16.528Z,58.06
2018-02-15T10:23:16.606Z,57.58
2018-02-15T10:24:16.506Z,57.77
2018-02-15T10:25:16.477Z,58.53
2018-02-15T10:26:16.468Z,59.47
2018-02-15T10:27:16.447Z,59.28
2018-02-15T10:28:16.446Z,59.38
2018-02-15T10:29:16.419Z,60.42
2018-02-15T10:30:16.400Z,60.42
2018-02-15T10:31:16.386Z,61.18
2018-02-15T10:32:16.407Z,60.99
2018-02-15T10:33:16.353Z,60.99
2018-02-15T10:34:16.335Z,61.36
2018-02-15T10:35:16.311Z,61.55
2018-02-15T10:36:16.307Z,61.65
2018-02-15T10:37:16.284Z,61.74
2018-02-15T10:38:16.268Z,62.21
2018-02-15T10:39:16.256Z,62.31
2018-02-15T10:40:16.238Z,62.40
2018-02-15T10:41:16.233Z,62.02
2018-02-15T10:42:16.203Z,62.12
2018-02-15T10:43:16.196Z,62.88
2018-02-15T10:44:16.175Z,62.78
2018-02-15T10:45:16.200Z,63.26
2018-02-15T10:46:16.144Z,63.07
2018-02-15T10:47:16.130Z,63.26
2018-02-15T10:48:16.108Z,63.64
2018-02-15T10:49:16.094Z,63.54
2018-02-15T10:50:16.084Z,64.20
2018-02-15T10:51:16.064Z,64.77
2018-02-15T10:52:16.044Z,64.86
2018-02-15T10:53:16.032Z,65.53
2018-02-15T10:54:16.011Z,65.53
2018-02-15T10:55:15.997Z,65.43
2018-02-15T10:56:15.979Z,66.28
2018-02-15T10:57:15.963Z,66.19
2018-02-15T10:58:15.947Z,66.19
2018-02-15T10:59:15.933Z,66.19
2018-02-15T11:00:15.915Z,66.56
2018-02-15T11:01:15.900Z,66.66
2018-02-15T11:02:15.884Z,67.03
2018-02-15T11:03:15.872Z,66.75
2018-02-15T11:04:15.852Z,67.22
2018-02-15T11:05:15.838Z,67.13
2018-02-15T11:06:15.821Z,67.41
2018-02-15T11:07:15.808Z,67.98
2018-02-15T11:08:15.786Z,69.18
2018-02-15T11:09:15.769Z,69.56
2018-02-15T11:10:15.757Z,70.21
2018-02-15T11:11:15.743Z,70.03
2018-02-15T11:12:15.725Z,70.31
2018-02-15T11:13:15.707Z,70.40
2018-02-15T11:14:15.695Z,70.78
2018-02-15T11:15:15.674Z,71.16
2018-02-15T11:16:15.658Z,72.02
2018-02-15T11:17:15.641Z,72.11
2018-02-15T11:18:15.628Z,72.11
2018-02-15T11:19:15.609Z,71.54
2018-02-15T11:20:15.591Z,71.26
2018-02-15T11:21:15.578Z,70.88
2018-02-15T11:22:15.593Z,70.69
2018-02-15T11:23:15.547Z,70.50
2018-02-15T11:24:15.523Z,70.69
2018-02-15T11:25:15.516Z,71.26
2018-02-15T11:26:15.498Z,71.30
2018-02-15T11:27:15.489Z,71.45
2018-02-15T11:28:15.464Z,71.11
2018-02-15T11:29:15.443Z,71.45
2018-02-15T11:30:15.432Z,71.64
2018-02-15T11:31:15.418Z,71.95
2018-02-15T11:32:15.396Z,72.96
2018-02-15T11:33:15.381Z,73.05
2018-02-15T11:34:15.372Z,72.86
2018-02-15T11:35:15.346Z,73.33
2018-02-15T11:36:15.339Z,73.52
2018-02-15T11:37:15.315Z,74.28
2018-02-15T11:38:15.303Z,74.85
2018-02-15T11:39:15.282Z,74.85
2018-02-15T11:40:15.268Z,74.95
2018-02-15T11:41:15.250Z,74.66
2018-02-15T11:42:15.237Z,74.95
2018-02-15T11:43:15.217Z,75.32
2018-02-15T11:44:15.202Z,75.42
2018-02-15T11:45:15.185Z,76.07
2018-02-15T11:46:15.173Z,76.36
2018-02-15T11:47:15.155Z,76.64
2018-02-15T11:48:15.138Z,77.78
2018-02-15T11:49:15.118Z,77.40
2018-02-15T11:50:15.107Z,78.34
2018-02-15T11:51:15.086Z,78.53
2018-02-15T11:52:15.070Z,78.34
2018-02-15T11:53:15.056Z,78.91
2018-02-15T11:54:15.036Z,79.00
2018-02-15T11:55:15.020Z,78.72
2018-02-15T11:56:15.009Z,79.48
2018-02-15T11:57:14.987Z,79.29
2018-02-15T11:58:14.971Z,79.10
2018-02-15T11:59:14.959Z,79.19
2018-02-15T12:00:14.935Z,79.29
2018-02-15T12:01:14.920Z,78.53
2018-02-15T12:02:14.902Z,78.44
2018-02-15T12:03:14.894Z,78.53
2018-02-15T12:04:14.873Z,78.72
2018-02-15T12:05:14.889Z,78.76
2018-02-15T12:06:14.841Z,78.81
2018-02-15T12:07:14.825Z,78.86
2018-02-15T12:08:14.807Z,78.29
2018-02-15T12:09:14.792Z,78.48
2018-02-15T12:10:14.774Z,78.48
2018-02-15T12:11:14.760Z,77.91
2018-02-15T12:12:14.747Z,78.10
2018-02-15T12:13:14.728Z,78.58
2018-02-15T12:14:14.709Z,78.01
2018-02-15T12:15:14.693Z,77.63
2018-02-15T12:16:14.678Z,76.87
2018-02-15T12:17:14.660Z,77.34
2018-02-15T12:18:14.643Z,77.06
2018-02-15T12:19:14.628Z,77.34
2018-02-15T12:20:14.611Z,77.91
2018-02-15T12:21:14.651Z,77.53
2018-02-15T12:22:14.575Z,77.53
2018-02-15T12:23:14.564Z,78.20
2018-02-15T12:24:14.545Z,78.01
2018-02-15T12:25:14.530Z,78.10
2018-02-15T12:26:14.512Z,78.20
2018-02-15T12:27:14.503Z,78.01
2018-02-15T12:28:14.484Z,78.67
2018-02-15T12:29:14.466Z,78.48
2018-02-15T12:30:14.451Z,78.67
2018-02-15T12:31:14.435Z,79.61
2018-02-15T12:32:14.422Z,79.14
2018-02-15T12:33:14.400Z,79.24
2018-02-15T12:34:14.387Z,78.86
2018-02-15T12:35:14.373Z,78.58
2018-02-15T12:36:14.354Z,79.43
2018-02-15T12:37:14.333Z,80.08
2018-02-15T12:38:14.314Z,79.52
2018-02-15T12:39:14.308Z,79.43
2018-02-15T12:40:14.291Z,79.05
2018-02-15T12:41:14.269Z,80.37
2018-02-15T12:42:14.264Z,79.80
2018-02-15T12:43:14.246Z,79.80
2018-02-15T12:44:14.234Z,79.71
2018-02-15T12:45:14.208Z,80.37
2018-02-15T12:46:14.193Z,80.08
2018-02-15T12:47:14.180Z,80.46
2018-02-15T12:48:14.161Z,81.03
2018-02-15T12:49:14.146Z,80.56
2018-02-15T12:50:14.129Z,80.46
2018-02-15T12:51:14.114Z,81.22
2018-02-15T12:52:14.103Z,81.60